This is the latest recevied weather packets stored in our database for station/object KI4UEM. If no packets are shown the sender has not sent any weather packets the latest 10 day(s).
| Time | Temp. | Humidity | Pressure | Rain* | Wind** | Luminosity | Snow |
|---|---|---|---|---|---|---|---|
| 1777755016 | 13.33° C | 89% | 1013 hPa | 0 mm | - | 156 W/m² | - |
| 1777754417 | 13.33° C | 90% | 1013 hPa | 0 mm | - | 224 W/m² | - |
| 1777752037 | 13.33° C | 91% | 1013.2 hPa | 0 mm | - | 200 W/m² | - |
| 1777749616 | 13.33° C | 91% | 1013.3 hPa | 0 mm | - | 112 W/m² | - |
| 1777749016 | 13.33° C | 91% | 1013.3 hPa | 0 mm | - | 139 W/m² | - |
| 1777746616 | 14.44° C | 92% | 1012.9 hPa | 0 mm | - | 126 W/m² | - |
| 1777744816 | 15.56° C | 92% | 1012.7 hPa | 0.25 mm | - | 291 W/m² | - |
| 1777741816 | 15° C | 93% | 1012.9 hPa | 1.52 mm | - | 141 W/m² | - |
| 1777741216 | 15° C | 94% | 1013 hPa | 1.27 mm | - | 174 W/m² | - |
| 1777737616 | 15° C | 93% | 1012.7 hPa | 0.51 mm | - | 113 W/m² | - |
| 1777734016 | 14.44° C | 93% | 1013.4 hPa | 1.52 mm | - | 83 W/m² | - |
| 1777732236 | 14.44° C | 94% | 1013.8 hPa | 1.52 mm | - | 97 W/m² | - |
| 1777730416 | 14.44° C | 94% | 1014 hPa | 1.27 mm | - | 33 W/m² | - |
| 1777729216 | 14.44° C | 94% | 1012.8 hPa | 1.52 mm | - | 75 W/m² | - |
| 1777723816 | 13.89° C | 93% | 1013 hPa | 2.03 mm | - | 20 W/m² | - |
| 1777721416 | 13.89° C | 93% | 1012.3 hPa | 0.76 mm | - | 7 W/m² | - |
| 1777719616 | 13.89° C | 93% | 1011.9 hPa | 0.76 mm | - | 1 W/m² | - |
| 1777716015 | 14.44° C | 93% | 1011.9 hPa | 2.03 mm | - | 0 W/m² | - |
| 1777715415 | 14.44° C | 92% | 1012.2 hPa | 2.03 mm | - | 0 W/m² | - |
| 1777709417 | 15° C | 92% | 1012.8 hPa | 2.54 mm | - | 0 W/m² | - |
| 1777705217 | 15.56° C | 90% | 1012.8 hPa | 1.52 mm | - | 0 W/m² | - |
| 1777704017 | 15.56° C | 89% | 1013.1 hPa | 1.27 mm | - | 0 W/m² | - |
| 1777703417 | 16.11° C | 89% | 1013.2 hPa | 1.02 mm | - | 0 W/m² | - |
| 1777702837 | 16.11° C | 89% | 1013.4 hPa | 1.02 mm | - | 0 W/m² | - |
| 1777697417 | 16.11° C | 87% | 1013.7 hPa | 0 mm | - | 0 W/m² | - |
* Rain latest hour (hover to see other rain measurements)
** Current wind speed in m/s (hover to see current wind gust speed)